createdAt,value
2018-10-19T00:00:45.062Z,15.80
2018-10-19T00:03:48.026Z,15.80
2018-10-19T00:06:50.996Z,15.80
2018-10-19T00:09:53.999Z,15.80
2018-10-19T00:16:20.851Z,15.80
2018-10-19T00:19:23.791Z,15.80
2018-10-19T00:22:26.761Z,15.70
2018-10-19T00:25:29.701Z,15.60
2018-10-19T00:28:32.657Z,15.60
2018-10-19T00:31:35.668Z,15.70
2018-10-19T00:34:38.598Z,15.60
2018-10-19T00:37:41.523Z,15.60
2018-10-19T00:40:44.476Z,15.60
2018-10-19T00:43:47.461Z,15.60
2018-10-19T00:46:50.444Z,15.60
2018-10-19T00:49:53.441Z,15.60
2018-10-19T00:52:56.713Z,15.60
2018-10-19T00:55:59.704Z,15.60
2018-10-19T00:59:02.734Z,15.60
2018-10-19T01:02:05.694Z,15.30
2018-10-19T01:05:08.673Z,15.40
2018-10-19T01:08:11.945Z,15.50
2018-10-19T01:11:15.041Z,15.40
2018-10-19T01:14:17.955Z,15.50
2018-10-19T01:17:20.945Z,15.50
2018-10-19T01:20:23.898Z,15.40
2018-10-19T01:23:26.862Z,15.40
2018-10-19T01:26:29.814Z,15.30
2018-10-19T01:29:32.769Z,15.30
2018-10-19T01:32:36.110Z,15.40
2018-10-19T01:35:39.109Z,15.30
2018-10-19T01:38:42.135Z,15.40
2018-10-19T01:41:45.132Z,15.40
2018-10-19T01:44:48.102Z,15.40
2018-10-19T01:47:51.051Z,15.40
2018-10-19T01:50:54.138Z,15.30
2018-10-19T01:53:57.085Z,15.30
2018-10-19T01:57:00.028Z,15.30
2018-10-19T02:00:03.334Z,15.30
2018-10-19T02:03:06.389Z,15.40
2018-10-19T02:06:09.373Z,15.30
2018-10-19T02:09:12.426Z,15.30
2018-10-19T02:12:15.363Z,15.30
2018-10-19T02:15:18.377Z,15.30
2018-10-19T02:18:21.243Z,15.30
2018-10-19T02:21:24.202Z,15.30
2018-10-19T02:24:27.199Z,15.30
2018-10-19T02:27:30.234Z,15.20
2018-10-19T02:30:33.165Z,15.20
2018-10-19T02:33:36.126Z,15.20
2018-10-19T02:36:39.053Z,15.20
2018-10-19T02:39:41.974Z,15.20
2018-10-19T02:42:44.925Z,15.20
2018-10-19T02:45:47.861Z,15.20
2018-10-19T02:48:50.804Z,15.20
2018-10-19T02:51:53.735Z,15.20
2018-10-19T02:54:56.713Z,15.10
2018-10-19T02:57:59.705Z,15.10
2018-10-19T03:01:02.665Z,15.20
2018-10-19T03:04:05.690Z,15.10
2018-10-19T03:07:08.661Z,15.00
2018-10-19T03:10:11.614Z,15.10
2018-10-19T03:13:14.568Z,15.10
2018-10-19T03:16:17.525Z,15.10
2018-10-19T03:19:20.529Z,15.20
2018-10-19T03:22:23.465Z,15.20
2018-10-19T03:25:26.493Z,15.10
2018-10-19T03:28:29.445Z,15.10
2018-10-19T03:31:32.457Z,15.00
2018-10-19T03:34:35.410Z,15.00
2018-10-19T03:37:38.349Z,15.00
2018-10-19T03:40:41.285Z,15.00
2018-10-19T03:43:44.222Z,15.00
2018-10-19T03:46:47.182Z,15.00
2018-10-19T03:49:50.136Z,14.90
2018-10-19T03:52:53.065Z,14.90
2018-10-19T03:55:56.016Z,14.90
2018-10-19T03:58:58.985Z,14.90
2018-10-19T04:02:01.898Z,14.90
2018-10-19T04:05:05.012Z,14.90
2018-10-19T04:08:07.966Z,14.90
2018-10-19T04:11:10.951Z,14.90
2018-10-19T04:14:13.908Z,14.90
2018-10-19T04:17:16.960Z,14.90
2018-10-19T04:20:19.890Z,14.80
2018-10-19T04:23:22.833Z,14.90
2018-10-19T04:26:25.772Z,14.90
2018-10-19T04:29:28.745Z,14.80
2018-10-19T04:32:31.694Z,14.80
2018-10-19T04:35:34.657Z,14.80
2018-10-19T04:38:37.621Z,14.80
2018-10-19T04:41:40.646Z,14.80
2018-10-19T04:44:43.534Z,14.80
2018-10-19T04:47:46.576Z,14.80
2018-10-19T04:50:49.543Z,14.80
2018-10-19T04:53:52.540Z,14.80
2018-10-19T04:56:55.539Z,14.70
2018-10-19T04:59:58.479Z,14.80
2018-10-19T05:03:01.496Z,14.70
2018-10-19T05:06:04.977Z,14.70
2018-10-19T05:09:09.944Z,14.70
2018-10-19T05:12:12.913Z,14.70
2018-10-19T05:15:15.896Z,14.70
2018-10-19T05:18:18.888Z,14.70
2018-10-19T05:21:21.861Z,14.70
2018-10-19T05:24:25.097Z,14.60
2018-10-19T05:27:28.024Z,14.70
2018-10-19T05:30:30.979Z,14.70
2018-10-19T05:33:34.065Z,14.70
2018-10-19T05:36:37.081Z,14.60
2018-10-19T05:39:40.054Z,14.70
2018-10-19T05:42:43.033Z,14.70
2018-10-19T05:45:45.963Z,14.60
2018-10-19T05:48:48.959Z,14.60
2018-10-19T05:51:51.965Z,14.70
2018-10-19T05:54:54.942Z,14.70
2018-10-19T05:57:57.918Z,14.70
2018-10-19T06:01:00.903Z,14.70
2018-10-19T06:04:04.160Z,14.70
2018-10-19T06:07:07.179Z,14.70
2018-10-19T06:10:10.227Z,14.70
2018-10-19T06:13:13.154Z,14.70
2018-10-19T06:16:16.150Z,14.60
2018-10-19T06:19:20.059Z,14.60
2018-10-19T06:22:23.017Z,14.60
2018-10-19T06:25:25.961Z,14.70
2018-10-19T06:28:28.954Z,14.70
2018-10-19T06:31:31.891Z,14.70
2018-10-19T06:34:34.894Z,14.70
2018-10-19T06:37:37.857Z,14.70
2018-10-19T06:40:40.866Z,14.50
2018-10-19T06:43:43.749Z,14.50
2018-10-19T06:46:46.806Z,14.40
2018-10-19T06:49:49.727Z,14.50
2018-10-19T06:52:52.896Z,14.50
2018-10-19T06:55:55.909Z,14.50
2018-10-19T06:58:58.877Z,14.50
2018-10-19T07:02:01.849Z,14.50
2018-10-19T07:05:05.308Z,14.60
2018-10-19T07:08:08.407Z,14.60
2018-10-19T07:11:11.260Z,14.60
2018-10-19T07:14:14.218Z,14.60
2018-10-19T07:17:17.238Z,14.50
2018-10-19T07:20:20.141Z,14.50
2018-10-19T07:23:23.106Z,14.60
2018-10-19T07:26:26.064Z,14.60
2018-10-19T07:29:29.021Z,14.60
2018-10-19T07:32:31.941Z,14.60
2018-10-19T07:35:34.885Z,14.60
2018-10-19T07:38:37.828Z,14.50
2018-10-19T07:41:40.852Z,14.50
2018-10-19T07:44:43.750Z,14.50
2018-10-19T07:47:46.726Z,14.50
2018-10-19T07:50:49.599Z,14.50
2018-10-19T07:53:52.549Z,14.60
2018-10-19T07:56:55.513Z,14.50
2018-10-19T07:59:58.439Z,14.60
2018-10-19T08:03:01.394Z,14.60
2018-10-19T08:06:04.335Z,14.60
2018-10-19T08:09:09.397Z,14.60
2018-10-19T08:12:12.318Z,14.60
2018-10-19T08:15:15.271Z,15.10
2018-10-19T08:18:18.244Z,15.60
2018-10-19T08:21:21.149Z,15.20
2018-10-19T08:24:24.074Z,15.00
2018-10-19T08:27:27.005Z,14.80
2018-10-19T08:30:29.907Z,14.70
2018-10-19T08:33:32.821Z,14.70
2018-10-19T08:36:35.730Z,14.70
2018-10-19T08:39:38.660Z,14.70
2018-10-19T08:42:41.582Z,14.70
2018-10-19T08:45:44.630Z,14.70
2018-10-19T08:48:47.561Z,14.70
2018-10-19T08:51:50.544Z,14.70
2018-10-19T08:54:53.551Z,14.70
2018-10-19T08:57:56.522Z,14.70
2018-10-19T09:00:59.442Z,14.60
2018-10-19T09:04:02.439Z,14.70
2018-10-19T09:07:05.403Z,14.60
2018-10-19T09:10:08.720Z,14.70
2018-10-19T09:13:11.740Z,14.50
2018-10-19T09:16:14.701Z,14.50
2018-10-19T09:19:17.707Z,14.50
2018-10-19T09:22:20.956Z,14.40
2018-10-19T09:25:23.901Z,16.30
2018-10-19T09:28:26.866Z,16.20
2018-10-19T09:31:29.813Z,15.70
2018-10-19T09:34:32.905Z,15.30
2018-10-19T09:37:35.909Z,15.10
2018-10-19T09:40:39.326Z,15.00
2018-10-19T09:43:42.228Z,14.90
2018-10-19T09:46:45.176Z,14.90
2018-10-19T09:49:48.168Z,15.00
2018-10-19T09:52:51.110Z,15.00
2018-10-19T09:55:54.092Z,14.90
2018-10-19T09:58:57.047Z,14.90
2018-10-19T10:01:59.965Z,14.70
2018-10-19T10:05:02.960Z,14.70
2018-10-19T10:08:05.938Z,14.70
2018-10-19T10:11:08.844Z,14.80
2018-10-19T10:14:11.873Z,14.80
2018-10-19T10:17:14.869Z,14.90
2018-10-19T10:20:17.782Z,14.90
2018-10-19T10:23:20.754Z,14.90
2018-10-19T10:26:23.701Z,14.90
2018-10-19T10:29:26.675Z,15.40
2018-10-19T10:32:29.642Z,16.20
2018-10-19T10:35:32.485Z,15.80
2018-10-19T10:38:35.416Z,15.60
2018-10-19T10:41:38.409Z,15.50
2018-10-19T10:44:41.369Z,15.40
2018-10-19T10:47:44.343Z,15.30
2018-10-19T10:50:47.262Z,15.20
2018-10-19T10:53:50.165Z,15.40
2018-10-19T10:56:53.109Z,15.40
2018-10-19T10:59:56.053Z,15.50
2018-10-19T11:02:58.957Z,15.40
2018-10-19T11:06:02.229Z,15.50
2018-10-19T11:09:08.218Z,15.50
2018-10-19T11:12:11.134Z,15.50
2018-10-19T11:15:14.085Z,15.50
2018-10-19T11:18:17.418Z,15.70
2018-10-19T11:21:20.766Z,16.10
2018-10-19T11:24:23.975Z,16.00
2018-10-19T11:27:27.344Z,16.10
2018-10-19T11:30:30.518Z,16.10
2018-10-19T11:33:34.568Z,16.10
2018-10-19T11:36:37.742Z,16.10
2018-10-19T11:39:58.607Z,16.20
2018-10-19T11:43:02.309Z,16.30
2018-10-19T11:46:06.134Z,16.40
2018-10-19T11:49:09.246Z,16.30
2018-10-19T11:52:12.214Z,16.40
2018-10-19T11:55:15.216Z,16.50
2018-10-19T11:58:18.160Z,16.70
2018-10-19T12:01:21.105Z,16.70
2018-10-19T12:04:24.050Z,16.80
2018-10-19T12:07:26.972Z,16.70
2018-10-19T12:10:29.943Z,16.60
2018-10-19T12:13:32.830Z,16.40
2018-10-19T12:16:35.781Z,16.20
2018-10-19T12:19:38.685Z,16.10
2018-10-19T12:22:41.617Z,16.30
2018-10-19T12:25:44.595Z,16.20
2018-10-19T12:28:47.525Z,16.40
2018-10-19T12:31:50.475Z,16.60
2018-10-19T12:34:53.574Z,16.70
2018-10-19T12:37:56.495Z,16.90
2018-10-19T12:40:59.405Z,17.00
2018-10-19T12:44:02.333Z,17.00
2018-10-19T12:47:22.548Z,16.90
2018-10-19T12:50:25.429Z,16.70
2018-10-19T12:53:28.404Z,16.70
2018-10-19T12:56:34.349Z,16.80
2018-10-19T12:59:37.434Z,17.00
2018-10-19T13:02:40.334Z,17.10
2018-10-19T13:05:43.260Z,17.30
2018-10-19T13:08:46.201Z,17.30
2018-10-19T13:11:49.138Z,17.40
2018-10-19T13:14:52.104Z,17.40
2018-10-19T13:17:55.024Z,17.40
2018-10-19T13:20:58.291Z,17.60
2018-10-19T13:24:01.246Z,17.70
2018-10-19T13:27:04.305Z,17.80
2018-10-19T13:30:07.332Z,17.90
2018-10-19T13:33:10.474Z,17.80
2018-10-19T13:36:13.454Z,17.80
2018-10-19T13:39:16.412Z,17.70
2018-10-19T13:42:19.272Z,17.60
2018-10-19T13:45:22.212Z,17.60
2018-10-19T13:48:25.151Z,17.40
2018-10-19T13:51:28.122Z,17.20
2018-10-19T13:54:31.201Z,17.10
2018-10-19T13:57:34.095Z,17.10
2018-10-19T14:00:37.021Z,17.00
2018-10-19T14:03:39.955Z,16.90
2018-10-19T14:06:42.864Z,16.70
2018-10-19T14:09:45.782Z,16.60
2018-10-19T14:12:48.757Z,16.60
2018-10-19T14:15:51.740Z,16.60
2018-10-19T14:18:54.654Z,16.60
2018-10-19T14:21:57.606Z,16.70
2018-10-19T14:25:00.665Z,16.60
2018-10-19T14:28:03.612Z,16.60
2018-10-19T14:31:06.591Z,16.60
2018-10-19T14:34:09.528Z,16.50
2018-10-19T14:37:12.449Z,16.50
2018-10-19T14:40:17.793Z,16.40
2018-10-19T14:43:20.759Z,16.40
2018-10-19T14:46:23.709Z,16.40
2018-10-19T14:49:26.644Z,16.40
2018-10-19T14:52:29.621Z,16.30
2018-10-19T14:55:32.540Z,16.30
2018-10-19T14:58:35.437Z,16.20
2018-10-19T15:01:38.361Z,16.40
2018-10-19T15:04:41.262Z,16.40
2018-10-19T15:07:44.191Z,16.50
2018-10-19T15:10:47.416Z,16.50
2018-10-19T15:13:50.089Z,16.50
2018-10-19T15:16:53.042Z,16.40
2018-10-19T15:19:55.974Z,16.40
2018-10-19T15:22:58.890Z,16.40
2018-10-19T15:26:02.554Z,16.50
2018-10-19T15:29:05.844Z,16.40
2018-10-19T15:32:09.253Z,16.40
2018-10-19T15:35:12.843Z,16.40
2018-10-19T15:38:16.593Z,16.40
2018-10-19T15:41:19.784Z,16.40
2018-10-19T15:44:22.985Z,16.40
2018-10-19T15:47:28.334Z,16.30
2018-10-19T15:50:31.466Z,16.30
2018-10-19T15:53:34.777Z,16.20
2018-10-19T15:56:38.072Z,16.20
2018-10-19T15:59:41.078Z,16.20
2018-10-19T16:02:45.227Z,16.20
2018-10-19T16:05:48.500Z,16.10
2018-10-19T16:08:51.934Z,16.10
2018-10-19T16:11:55.474Z,16.10
2018-10-19T16:14:58.776Z,16.10
2018-10-19T16:18:01.710Z,16.10
2018-10-19T16:21:05.038Z,16.10
2018-10-19T16:24:07.979Z,16.10
2018-10-19T16:27:11.042Z,16.10
2018-10-19T16:30:14.055Z,16.10
2018-10-19T16:33:16.986Z,16.10
2018-10-19T16:36:19.987Z,16.10
2018-10-19T16:39:22.945Z,16.10
2018-10-19T16:42:25.889Z,16.10
2018-10-19T16:45:28.822Z,16.00
2018-10-19T16:48:31.835Z,16.00
2018-10-19T16:51:34.793Z,16.00
2018-10-19T16:54:37.693Z,16.00
2018-10-19T16:57:40.627Z,16.00
2018-10-19T17:00:43.587Z,16.00
2018-10-19T17:03:46.497Z,16.00
2018-10-19T17:06:49.432Z,16.00
2018-10-19T17:09:52.436Z,15.90
2018-10-19T17:12:55.474Z,15.90
2018-10-19T17:15:58.390Z,15.90
2018-10-19T17:19:01.895Z,15.80
2018-10-19T17:22:05.359Z,15.80
2018-10-19T17:25:10.184Z,15.90
2018-10-19T17:28:13.073Z,15.90
2018-10-19T17:31:16.133Z,15.80
2018-10-19T17:34:18.974Z,15.70
2018-10-19T17:37:21.917Z,15.70
2018-10-19T17:40:24.859Z,15.70
2018-10-19T17:43:27.883Z,15.60
2018-10-19T17:46:30.858Z,15.70
2018-10-19T17:49:33.836Z,15.60
2018-10-19T17:52:37.067Z,15.50
2018-10-19T17:55:40.012Z,15.60
2018-10-19T17:58:43.010Z,15.50
2018-10-19T18:01:46.006Z,15.40
2018-10-19T18:04:49.048Z,15.40
2018-10-19T18:07:51.950Z,15.30
2018-10-19T18:10:54.950Z,15.40
2018-10-19T18:13:57.954Z,15.20
2018-10-19T18:17:00.978Z,15.20
2018-10-19T18:20:04.003Z,15.10
2018-10-19T18:23:07.102Z,15.20
2018-10-19T18:26:10.007Z,15.10
2018-10-19T18:29:12.976Z,15.00
2018-10-19T18:32:16.012Z,15.00
2018-10-19T18:35:18.977Z,15.00
2018-10-19T18:38:21.880Z,14.90
2018-10-19T18:41:24.833Z,14.90
2018-10-19T18:44:27.766Z,14.80
2018-10-19T18:47:30.723Z,14.70
2018-10-19T18:50:33.679Z,14.60
2018-10-19T18:53:36.779Z,14.50
2018-10-19T18:56:40.063Z,14.50
2018-10-19T18:59:43.080Z,14.50
2018-10-19T19:02:46.189Z,14.50
2018-10-19T19:05:49.521Z,14.40
2018-10-19T19:08:53.115Z,14.50
2018-10-19T19:11:56.473Z,14.30
2018-10-19T19:14:59.574Z,14.40
2018-10-19T19:18:02.542Z,14.40
2018-10-19T19:21:05.942Z,14.30
2018-10-19T19:24:15.037Z,14.30
2018-10-19T19:27:18.378Z,14.30
2018-10-19T19:30:21.596Z,14.30
2018-10-19T19:33:30.331Z,14.40
2018-10-19T19:36:33.693Z,14.20
2018-10-19T19:39:37.166Z,14.20
2018-10-19T19:42:43.014Z,14.20
2018-10-19T19:45:46.240Z,14.20
2018-10-19T19:48:55.755Z,14.30
2018-10-19T19:51:59.119Z,14.30
2018-10-19T19:55:02.708Z,14.20
2018-10-19T19:58:06.392Z,14.20
2018-10-19T20:01:09.972Z,14.10
2018-10-19T20:04:16.992Z,14.10
2018-10-19T20:07:20.397Z,14.10
2018-10-19T20:10:24.012Z,14.20
2018-10-19T20:13:27.402Z,14.20
2018-10-19T20:16:30.729Z,14.10
2018-10-19T20:19:34.382Z,14.20
2018-10-19T20:22:37.953Z,14.10
2018-10-19T20:25:41.309Z,13.90
2018-10-19T20:28:44.927Z,13.90
2018-10-19T20:31:47.807Z,13.70
2018-10-19T20:34:51.187Z,13.80
2018-10-19T20:37:55.187Z,13.80
2018-10-19T20:40:59.310Z,13.70
2018-10-19T20:44:02.328Z,13.70
2018-10-19T20:47:05.917Z,13.60
2018-10-19T20:50:08.975Z,13.50
2018-10-19T20:53:11.981Z,13.50
2018-10-19T20:56:14.944Z,13.60
2018-10-19T20:59:17.935Z,13.60
2018-10-19T21:02:21.000Z,13.60
2018-10-19T21:05:23.960Z,13.60
2018-10-19T21:08:27.002Z,13.70
2018-10-19T21:11:30.007Z,13.60
2018-10-19T21:14:33.018Z,13.50
2018-10-19T21:17:36.538Z,13.60
2018-10-19T21:20:39.856Z,13.70
2018-10-19T21:23:43.055Z,13.70
2018-10-19T21:26:46.250Z,13.70
2018-10-19T21:29:49.187Z,13.50
2018-10-19T21:32:52.134Z,13.50
2018-10-19T21:35:55.119Z,13.40
2018-10-19T21:38:58.098Z,13.50
2018-10-19T21:42:01.051Z,13.30
2018-10-19T21:45:04.350Z,13.40
2018-10-19T21:48:07.315Z,13.30
2018-10-19T21:51:17.016Z,13.30
2018-10-19T21:54:19.989Z,13.20
2018-10-19T21:57:22.978Z,13.10
2018-10-19T22:00:26.053Z,13.20
2018-10-19T22:03:29.031Z,13.10
2018-10-19T22:06:32.038Z,13.30
2018-10-19T22:09:34.959Z,13.20
2018-10-19T22:12:37.878Z,13.10
2018-10-19T22:15:40.872Z,13.10
2018-10-19T22:18:43.857Z,13.10
2018-10-19T22:21:46.824Z,13.20
2018-10-19T22:24:49.843Z,13.00
2018-10-19T22:27:52.798Z,13.10
2018-10-19T22:30:55.787Z,13.20
2018-10-19T22:33:58.711Z,13.10
2018-10-19T22:37:01.648Z,13.20
2018-10-19T22:40:05.172Z,13.10
2018-10-19T22:43:08.239Z,13.10
2018-10-19T22:46:11.153Z,13.00
2018-10-19T22:49:14.162Z,13.00
2018-10-19T22:52:17.042Z,13.00
2018-10-19T22:55:20.002Z,12.90
2018-10-19T22:58:23.098Z,12.80
2018-10-19T23:01:26.125Z,12.80
2018-10-19T23:04:29.081Z,12.70
2018-10-19T23:07:32.061Z,12.80
2018-10-19T23:10:35.095Z,12.80
2018-10-19T23:13:38.050Z,12.70
2018-10-19T23:16:41.055Z,12.60
2018-10-19T23:19:44.003Z,12.60
2018-10-19T23:22:47.031Z,12.60
2018-10-19T23:25:49.966Z,12.40
2018-10-19T23:28:52.944Z,12.30
2018-10-19T23:31:55.956Z,12.40
2018-10-19T23:34:58.976Z,12.60
2018-10-19T23:38:02.102Z,12.50
2018-10-19T23:41:05.160Z,12.60
2018-10-19T23:44:08.249Z,12.60
2018-10-19T23:47:11.251Z,12.50
2018-10-19T23:50:14.157Z,12.50
2018-10-19T23:53:17.186Z,12.50
2018-10-19T23:56:20.146Z,12.30
2018-10-19T23:59:23.057Z,12.20
